sensor_id;sensor_type;location;lat;lon;timestamp;temperature;humidity
18690;DHT22;9782;52.930;15.562;2023-02-15T00:12:48;1.00;99.90
18690;DHT22;9782;52.930;15.562;2023-02-15T00:17:51;1.00;99.90
18690;DHT22;9782;52.930;15.562;2023-02-15T00:20:18;1.00;99.90
18690;DHT22;9782;52.930;15.562;2023-02-15T00:22:45;1.00;99.90
18690;DHT22;9782;52.930;15.562;2023-02-15T00:25:11;1.00;99.90
18690;DHT22;9782;52.930;15.562;2023-02-15T00:27:38;1.00;1.00
18690;DHT22;9782;52.930;15.562;2023-02-15T00:30:07;1.00;1.00
18690;DHT22;9782;52.930;15.562;2023-02-15T00:32:34;1.00;1.00
18690;DHT22;9782;52.930;15.562;2023-02-15T00:35:01;1.00;1.00
18690;DHT22;9782;52.930;15.562;2023-02-15T00:37:28;1.00;1.00
18690;DHT22;9782;52.930;15.562;2023-02-15T00:39:55;1.00;1.00
18690;DHT22;9782;52.930;15.562;2023-02-15T00:42:21;1.00;1.00
18690;DHT22;9782;52.930;15.562;2023-02-15T00:44:48;1.00;1.00
18690;DHT22;9782;52.930;15.562;2023-02-15T00:47:16;1.00;1.00
18690;DHT22;9782;52.930;15.562;2023-02-15T00:49:43;1.00;1.00
18690;DHT22;9782;52.930;15.562;2023-02-15T00:52:10;1.00;1.00
18690;DHT22;9782;52.930;15.562;2023-02-15T00:54:37;0.90;1.00
18690;DHT22;9782;52.930;15.562;2023-02-15T00:57:04;0.90;1.00
18690;DHT22;9782;52.930;15.562;2023-02-15T00:59:30;0.90;1.00
18690;DHT22;9782;52.930;15.562;2023-02-15T01:01:57;0.90;1.00
18690;DHT22;9782;52.930;15.562;2023-02-15T01:04:25;0.90;1.00
18690;DHT22;9782;52.930;15.562;2023-02-15T01:06:52;0.90;1.00
18690;DHT22;9782;52.930;15.562;2023-02-15T01:09:19;0.90;1.00
18690;DHT22;9782;52.930;15.562;2023-02-15T01:11:46;0.90;1.00
18690;DHT22;9782;52.930;15.562;2023-02-15T01:14:13;0.80;1.00
18690;DHT22;9782;52.930;15.562;2023-02-15T01:16:40;0.80;1.00
18690;DHT22;9782;52.930;15.562;2023-02-15T01:19:06;0.80;1.00
18690;DHT22;9782;52.930;15.562;2023-02-15T01:21:35;0.80;1.00
18690;DHT22;9782;52.930;15.562;2023-02-15T01:24:02;0.80;1.00
18690;DHT22;9782;52.930;15.562;2023-02-15T01:26:28;0.80;1.00
18690;DHT22;9782;52.930;15.562;2023-02-15T01:28:56;0.80;1.00
18690;DHT22;9782;52.930;15.562;2023-02-15T01:31:22;0.80;1.00
18690;DHT22;9782;52.930;15.562;2023-02-15T01:33:49;0.80;1.00
18690;DHT22;9782;52.930;15.562;2023-02-15T01:36:16;0.70;1.00
18690;DHT22;9782;52.930;15.562;2023-02-15T01:38:45;0.70;1.00
18690;DHT22;9782;52.930;15.562;2023-02-15T01:41:12;0.70;16.30
18690;DHT22;9782;52.930;15.562;2023-02-15T01:43:52;0.70;1.00
18690;DHT22;9782;52.930;15.562;2023-02-15T01:46:23;0.70;5.80
18690;DHT22;9782;52.930;15.562;2023-02-15T01:48:53;0.60;6.20
18690;DHT22;9782;52.930;15.562;2023-02-15T01:51:24;0.60;36.20
18690;DHT22;9782;52.930;15.562;2023-02-15T01:53:57;0.60;99.90
18690;DHT22;9782;52.930;15.562;2023-02-15T01:56:28;0.60;99.90
18690;DHT22;9782;52.930;15.562;2023-02-15T01:58:58;0.60;99.90
18690;DHT22;9782;52.930;15.562;2023-02-15T02:01:25;0.60;99.90
18690;DHT22;9782;52.930;15.562;2023-02-15T02:03:58;0.60;99.90
18690;DHT22;9782;52.930;15.562;2023-02-15T02:06:27;0.60;99.90
18690;DHT22;9782;52.930;15.562;2023-02-15T02:08:56;0.60;99.90
18690;DHT22;9782;52.930;15.562;2023-02-15T02:11:23;0.60;99.90
18690;DHT22;9782;52.930;15.562;2023-02-15T02:13:51;0.60;99.90
18690;DHT22;9782;52.930;15.562;2023-02-15T02:16:23;0.60;99.90
18690;DHT22;9782;52.930;15.562;2023-02-15T02:19:00;0.60;99.90
18690;DHT22;9782;52.930;15.562;2023-02-15T02:21:51;0.60;99.90
18690;DHT22;9782;52.930;15.562;2023-02-15T02:24:42;0.60;99.90
18690;DHT22;9782;52.930;15.562;2023-02-15T02:27:29;0.60;99.90
18690;DHT22;9782;52.930;15.562;2023-02-15T02:30:20;0.50;99.90
18690;DHT22;9782;52.930;15.562;2023-02-15T02:33:09;0.50;99.90
18690;DHT22;9782;52.930;15.562;2023-02-15T02:35:42;0.50;99.90
18690;DHT22;9782;52.930;15.562;2023-02-15T02:38:17;0.50;99.90
18690;DHT22;9782;52.930;15.562;2023-02-15T02:40:53;0.50;99.90
18690;DHT22;9782;52.930;15.562;2023-02-15T02:43:31;0.40;99.90
18690;DHT22;9782;52.930;15.562;2023-02-15T02:46:02;0.40;99.90
18690;DHT22;9782;52.930;15.562;2023-02-15T02:48:33;0.40;99.90
18690;DHT22;9782;52.930;15.562;2023-02-15T02:51:00;0.40;99.90
18690;DHT22;9782;52.930;15.562;2023-02-15T02:53:30;0.40;99.90
18690;DHT22;9782;52.930;15.562;2023-02-15T02:56:01;0.40;99.90
18690;DHT22;9782;52.930;15.562;2023-02-15T02:58:35;0.40;99.90
18690;DHT22;9782;52.930;15.562;2023-02-15T03:01:08;0.40;99.90
18690;DHT22;9782;52.930;15.562;2023-02-15T03:03:39;0.40;1.00
18690;DHT22;9782;52.930;15.562;2023-02-15T03:06:11;0.40;1.00
18690;DHT22;9782;52.930;15.562;2023-02-15T03:08:41;0.50;1.00
18690;DHT22;9782;52.930;15.562;2023-02-15T03:11:10;0.50;1.00
18690;DHT22;9782;52.930;15.562;2023-02-15T03:13:37;0.50;1.00
18690;DHT22;9782;52.930;15.562;2023-02-15T03:16:05;0.50;1.00
18690;DHT22;9782;52.930;15.562;2023-02-15T03:19:08;0.40;1.00
18690;DHT22;9782;52.930;15.562;2023-02-15T03:21:38;0.40;1.00
18690;DHT22;9782;52.930;15.562;2023-02-15T03:24:09;0.40;99.90
18690;DHT22;9782;52.930;15.562;2023-02-15T03:26:37;0.40;1.00
18690;DHT22;9782;52.930;15.562;2023-02-15T03:29:06;0.40;1.00
18690;DHT22;9782;52.930;15.562;2023-02-15T03:31:37;0.40;1.00
18690;DHT22;9782;52.930;15.562;2023-02-15T03:34:13;0.30;1.00
18690;DHT22;9782;52.930;15.562;2023-02-15T03:36:45;0.30;1.00
18690;DHT22;9782;52.930;15.562;2023-02-15T03:39:18;0.30;1.00
18690;DHT22;9782;52.930;15.562;2023-02-15T03:41:51;0.30;1.00
18690;DHT22;9782;52.930;15.562;2023-02-15T03:44:24;0.30;1.00
18690;DHT22;9782;52.930;15.562;2023-02-15T03:46:56;0.30;1.00
18690;DHT22;9782;52.930;15.562;2023-02-15T03:49:30;0.20;1.00
18690;DHT22;9782;52.930;15.562;2023-02-15T03:52:00;0.20;1.00
18690;DHT22;9782;52.930;15.562;2023-02-15T03:54:31;0.20;1.00
18690;DHT22;9782;52.930;15.562;2023-02-15T03:57:12;0.20;1.00
18690;DHT22;9782;52.930;15.562;2023-02-15T03:59:53;0.20;1.00
18690;DHT22;9782;52.930;15.562;2023-02-15T04:02:42;0.30;1.00
18690;DHT22;9782;52.930;15.562;2023-02-15T04:05:12;0.30;1.00
18690;DHT22;9782;52.930;15.562;2023-02-15T04:07:39;0.20;1.00
18690;DHT22;9782;52.930;15.562;2023-02-15T04:10:06;0.20;1.00
18690;DHT22;9782;52.930;15.562;2023-02-15T04:12:50;0.20;1.00
18690;DHT22;9782;52.930;15.562;2023-02-15T04:15:17;0.30;1.00
18690;DHT22;9782;52.930;15.562;2023-02-15T04:18:02;0.30;1.00
18690;DHT22;9782;52.930;15.562;2023-02-15T04:20:30;0.30;1.00
18690;DHT22;9782;52.930;15.562;2023-02-15T04:23:14;0.30;1.00
18690;DHT22;9782;52.930;15.562;2023-02-15T04:26:02;0.20;1.00
18690;DHT22;9782;52.930;15.562;2023-02-15T04:28:30;0.20;1.00
18690;DHT22;9782;52.930;15.562;2023-02-15T04:30:56;0.20;1.00
18690;DHT22;9782;52.930;15.562;2023-02-15T04:33:23;0.30;1.00
18690;DHT22;9782;52.930;15.562;2023-02-15T04:35:52;0.30;1.00
18690;DHT22;9782;52.930;15.562;2023-02-15T04:38:19;0.20;1.00
18690;DHT22;9782;52.930;15.562;2023-02-15T04:40:49;0.30;1.00
18690;DHT22;9782;52.930;15.562;2023-02-15T04:43:17;0.20;1.00
18690;DHT22;9782;52.930;15.562;2023-02-15T04:45:48;0.20;1.00
18690;DHT22;9782;52.930;15.562;2023-02-15T04:48:15;0.20;1.00
18690;DHT22;9782;52.930;15.562;2023-02-15T04:50:42;0.20;1.00
18690;DHT22;9782;52.930;15.562;2023-02-15T04:53:11;0.20;1.00
18690;DHT22;9782;52.930;15.562;2023-02-15T04:55:38;0.20;1.00
18690;DHT22;9782;52.930;15.562;2023-02-15T04:58:04;0.20;1.00
18690;DHT22;9782;52.930;15.562;2023-02-15T05:00:31;0.20;1.00
18690;DHT22;9782;52.930;15.562;2023-02-15T05:02:58;0.20;1.00
18690;DHT22;9782;52.930;15.562;2023-02-15T05:05:25;0.20;1.00
18690;DHT22;9782;52.930;15.562;2023-02-15T05:07:52;0.20;1.00
18690;DHT22;9782;52.930;15.562;2023-02-15T05:10:20;0.20;1.00
18690;DHT22;9782;52.930;15.562;2023-02-15T05:12:47;0.20;99.90
18690;DHT22;9782;52.930;15.562;2023-02-15T05:15:14;0.20;24.10
18690;DHT22;9782;52.930;15.562;2023-02-15T05:17:41;0.20;16.30
18690;DHT22;9782;52.930;15.562;2023-02-15T05:20:09;0.20;5.10
18690;DHT22;9782;52.930;15.562;2023-02-15T05:22:36;0.30;32.90
18690;DHT22;9782;52.930;15.562;2023-02-15T05:25:03;0.30;21.60
18690;DHT22;9782;52.930;15.562;2023-02-15T05:27:48;0.20;1.00
18690;DHT22;9782;52.930;15.562;2023-02-15T05:30:29;0.20;40.60
18690;DHT22;9782;52.930;15.562;2023-02-15T05:32:56;0.20;51.80
18690;DHT22;9782;52.930;15.562;2023-02-15T05:35:23;0.20;1.00
18690;DHT22;9782;52.930;15.562;2023-02-15T05:37:50;0.20;9.10
18690;DHT22;9782;52.930;15.562;2023-02-15T05:40:17;0.20;52.60
18690;DHT22;9782;52.930;15.562;2023-02-15T05:42:43;0.10;99.90
18690;DHT22;9782;52.930;15.562;2023-02-15T05:45:12;0.20;99.90
18690;DHT22;9782;52.930;15.562;2023-02-15T05:47:38;0.20;93.60
18690;DHT22;9782;52.930;15.562;2023-02-15T05:50:06;0.10;99.90
18690;DHT22;9782;52.930;15.562;2023-02-15T05:52:34;0.10;99.90
18690;DHT22;9782;52.930;15.562;2023-02-15T05:55:00;0.10;99.90
18690;DHT22;9782;52.930;15.562;2023-02-15T05:57:28;0.10;99.90
18690;DHT22;9782;52.930;15.562;2023-02-15T05:59:55;0.10;99.90
18690;DHT22;9782;52.930;15.562;2023-02-15T06:02:23;0.10;99.90
18690;DHT22;9782;52.930;15.562;2023-02-15T06:04:50;0.10;99.90
18690;DHT22;9782;52.930;15.562;2023-02-15T06:07:17;0.10;99.90
18690;DHT22;9782;52.930;15.562;2023-02-15T06:09:44;0.10;99.90
18690;DHT22;9782;52.930;15.562;2023-02-15T06:12:11;0.10;99.90
18690;DHT22;9782;52.930;15.562;2023-02-15T06:14:38;0.10;99.90
18690;DHT22;9782;52.930;15.562;2023-02-15T06:17:05;0.10;99.90
18690;DHT22;9782;52.930;15.562;2023-02-15T06:19:33;0.10;99.90
18690;DHT22;9782;52.930;15.562;2023-02-15T06:22:00;0.10;99.90
18690;DHT22;9782;52.930;15.562;2023-02-15T06:24:27;0.20;99.90
18690;DHT22;9782;52.930;15.562;2023-02-15T06:26:54;0.20;99.90
18690;DHT22;9782;52.930;15.562;2023-02-15T06:29:21;0.20;99.90
18690;DHT22;9782;52.930;15.562;2023-02-15T06:31:48;0.20;99.90
18690;DHT22;9782;52.930;15.562;2023-02-15T06:34:15;0.30;99.90
18690;DHT22;9782;52.930;15.562;2023-02-15T06:36:44;0.30;99.90
18690;DHT22;9782;52.930;15.562;2023-02-15T06:39:11;0.30;99.90
18690;DHT22;9782;52.930;15.562;2023-02-15T06:41:39;0.30;99.90
18690;DHT22;9782;52.930;15.562;2023-02-15T06:44:05;0.40;99.90
18690;DHT22;9782;52.930;15.562;2023-02-15T06:46:33;0.40;99.90
18690;DHT22;9782;52.930;15.562;2023-02-15T06:49:00;0.40;99.90
18690;DHT22;9782;52.930;15.562;2023-02-15T06:51:27;0.50;99.90
18690;DHT22;9782;52.930;15.562;2023-02-15T06:53:55;0.50;99.90
18690;DHT22;9782;52.930;15.562;2023-02-15T06:56:22;0.50;99.90
18690;DHT22;9782;52.930;15.562;2023-02-15T06:58:49;0.60;99.90
18690;DHT22;9782;52.930;15.562;2023-02-15T07:01:16;0.70;99.90
18690;DHT22;9782;52.930;15.562;2023-02-15T07:03:43;0.70;99.90
18690;DHT22;9782;52.930;15.562;2023-02-15T07:06:09;0.80;99.90
18690;DHT22;9782;52.930;15.562;2023-02-15T07:08:37;0.80;99.90
18690;DHT22;9782;52.930;15.562;2023-02-15T07:11:06;0.90;99.90
18690;DHT22;9782;52.930;15.562;2023-02-15T07:13:51;0.90;99.90
18690;DHT22;9782;52.930;15.562;2023-02-15T07:16:19;0.90;99.90
18690;DHT22;9782;52.930;15.562;2023-02-15T07:18:46;1.00;99.90
18690;DHT22;9782;52.930;15.562;2023-02-15T07:21:13;1.10;99.90
18690;DHT22;9782;52.930;15.562;2023-02-15T07:23:40;1.10;99.90
18690;DHT22;9782;52.930;15.562;2023-02-15T07:26:08;1.20;99.90
18690;DHT22;9782;52.930;15.562;2023-02-15T07:28:35;1.20;99.90
18690;DHT22;9782;52.930;15.562;2023-02-15T07:31:02;1.30;99.90
18690;DHT22;9782;52.930;15.562;2023-02-15T07:33:30;1.30;99.90
18690;DHT22;9782;52.930;15.562;2023-02-15T07:35:58;1.40;99.90
18690;DHT22;9782;52.930;15.562;2023-02-15T07:38:27;1.50;99.90
18690;DHT22;9782;52.930;15.562;2023-02-15T07:40:57;1.50;99.90
18690;DHT22;9782;52.930;15.562;2023-02-15T07:43:26;1.60;99.90
18690;DHT22;9782;52.930;15.562;2023-02-15T07:45:53;1.60;99.90
18690;DHT22;9782;52.930;15.562;2023-02-15T07:48:20;1.70;99.90
18690;DHT22;9782;52.930;15.562;2023-02-15T07:50:47;1.80;99.90
18690;DHT22;9782;52.930;15.562;2023-02-15T07:53:14;1.80;99.90
18690;DHT22;9782;52.930;15.562;2023-02-15T07:55:41;1.90;99.90
18690;DHT22;9782;52.930;15.562;2023-02-15T07:58:08;1.90;99.90
18690;DHT22;9782;52.930;15.562;2023-02-15T08:00:37;2.00;99.90
18690;DHT22;9782;52.930;15.562;2023-02-15T08:03:17;2.10;99.90
18690;DHT22;9782;52.930;15.562;2023-02-15T08:05:45;2.20;64.90
18690;DHT22;9782;52.930;15.562;2023-02-15T08:08:23;2.20;3.70
18690;DHT22;9782;52.930;15.562;2023-02-15T08:11:01;2.30;34.40
18690;DHT22;9782;52.930;15.562;2023-02-15T08:13:55;2.30;6.50
18690;DHT22;9782;52.930;15.562;2023-02-15T08:16:30;2.40;1.00
18690;DHT22;9782;52.930;15.562;2023-02-15T08:18:59;2.50;4.70
18690;DHT22;9782;52.930;15.562;2023-02-15T08:21:27;2.60;1.00
18690;DHT22;9782;52.930;15.562;2023-02-15T08:23:54;2.60;1.00
18690;DHT22;9782;52.930;15.562;2023-02-15T08:26:22;2.60;1.00
18690;DHT22;9782;52.930;15.562;2023-02-15T08:28:49;2.70;1.00
18690;DHT22;9782;52.930;15.562;2023-02-15T08:31:17;2.70;1.00
18690;DHT22;9782;52.930;15.562;2023-02-15T08:33:46;2.80;1.00
18690;DHT22;9782;52.930;15.562;2023-02-15T08:36:15;2.80;1.00
18690;DHT22;9782;52.930;15.562;2023-02-15T08:38:43;2.90;1.00
18690;DHT22;9782;52.930;15.562;2023-02-15T08:41:14;3.00;1.00
18690;DHT22;9782;52.930;15.562;2023-02-15T08:43:42;3.00;1.00
18690;DHT22;9782;52.930;15.562;2023-02-15T08:46:10;3.00;1.00
18690;DHT22;9782;52.930;15.562;2023-02-15T08:48:37;3.10;1.00
18690;DHT22;9782;52.930;15.562;2023-02-15T08:51:07;3.10;1.00
18690;DHT22;9782;52.930;15.562;2023-02-15T08:53:37;3.20;1.00
18690;DHT22;9782;52.930;15.562;2023-02-15T08:56:04;3.20;1.00
18690;DHT22;9782;52.930;15.562;2023-02-15T08:58:31;3.30;1.00
18690;DHT22;9782;52.930;15.562;2023-02-15T09:00:58;3.30;1.00
18690;DHT22;9782;52.930;15.562;2023-02-15T09:03:28;3.30;1.00
18690;DHT22;9782;52.930;15.562;2023-02-15T09:05:58;3.40;1.00
18690;DHT22;9782;52.930;15.562;2023-02-15T09:08:28;3.40;99.90
18690;DHT22;9782;52.930;15.562;2023-02-15T09:11:04;3.50;99.90
18690;DHT22;9782;52.930;15.562;2023-02-15T09:13:31;3.50;99.90
18690;DHT22;9782;52.930;15.562;2023-02-15T09:16:00;3.50;99.90
18690;DHT22;9782;52.930;15.562;2023-02-15T09:18:29;3.50;99.90
18690;DHT22;9782;52.930;15.562;2023-02-15T09:20:56;3.60;99.90
18690;DHT22;9782;52.930;15.562;2023-02-15T09:23:23;3.60;69.70
18690;DHT22;9782;52.930;15.562;2023-02-15T09:25:51;3.60;92.90
18690;DHT22;9782;52.930;15.562;2023-02-15T09:28:18;3.60;99.90
18690;DHT22;9782;52.930;15.562;2023-02-15T09:30:45;3.70;99.90
18690;DHT22;9782;52.930;15.562;2023-02-15T09:33:12;3.80;99.90
18690;DHT22;9782;52.930;15.562;2023-02-15T09:35:39;3.90;27.90
18690;DHT22;9782;52.930;15.562;2023-02-15T09:38:06;4.00;1.00
18690;DHT22;9782;52.930;15.562;2023-02-15T09:40:41;4.10;1.00
18690;DHT22;9782;52.930;15.562;2023-02-15T09:43:21;4.10;1.00
18690;DHT22;9782;52.930;15.562;2023-02-15T10:20:13;5.10;1.00
18690;DHT22;9782;52.930;15.562;2023-02-15T10:22:55;5.30;1.00
18690;DHT22;9782;52.930;15.562;2023-02-15T10:25:31;5.30;1.00
18690;DHT22;9782;52.930;15.562;2023-02-15T10:28:04;5.50;99.90
18690;DHT22;9782;52.930;15.562;2023-02-15T10:30:38;5.40;99.90
18690;DHT22;9782;52.930;15.562;2023-02-15T10:33:14;5.50;99.90
18690;DHT22;9782;52.930;15.562;2023-02-15T10:35:51;5.60;99.90
18690;DHT22;9782;52.930;15.562;2023-02-15T10:38:27;5.60;2.40
18690;DHT22;9782;52.930;15.562;2023-02-15T10:41:09;5.60;1.00
18690;DHT22;9782;52.930;15.562;2023-02-15T10:43:49;5.70;1.00
18690;DHT22;9782;52.930;15.562;2023-02-15T10:46:38;5.60;1.00
18690;DHT22;9782;52.930;15.562;2023-02-15T10:49:19;5.70;1.00
18690;DHT22;9782;52.930;15.562;2023-02-15T10:52:02;5.60;1.00
18690;DHT22;9782;52.930;15.562;2023-02-15T10:54:37;5.70;1.00
18690;DHT22;9782;52.930;15.562;2023-02-15T10:57:13;5.70;1.00
18690;DHT22;9782;52.930;15.562;2023-02-15T11:00:03;5.70;1.00
18690;DHT22;9782;52.930;15.562;2023-02-15T11:02:50;5.70;1.00
18690;DHT22;9782;52.930;15.562;2023-02-15T11:05:26;5.80;1.00
18690;DHT22;9782;52.930;15.562;2023-02-15T11:08:00;5.90;1.00
18690;DHT22;9782;52.930;15.562;2023-02-15T11:10:33;5.90;1.00
18690;DHT22;9782;52.930;15.562;2023-02-15T11:13:05;5.90;1.00
18690;DHT22;9782;52.930;15.562;2023-02-15T11:15:36;6.00;1.00
18690;DHT22;9782;52.930;15.562;2023-02-15T11:18:11;6.10;1.00
18690;DHT22;9782;52.930;15.562;2023-02-15T11:20:45;6.20;1.00
18690;DHT22;9782;52.930;15.562;2023-02-15T11:23:16;6.30;1.00
18690;DHT22;9782;52.930;15.562;2023-02-15T11:25:46;6.30;1.00
18690;DHT22;9782;52.930;15.562;2023-02-15T11:28:22;6.50;1.00
18690;DHT22;9782;52.930;15.562;2023-02-15T11:30:53;6.60;1.00
18690;DHT22;9782;52.930;15.562;2023-02-15T11:33:24;6.60;99.90
18690;DHT22;9782;52.930;15.562;2023-02-15T11:35:57;6.70;99.90
18690;DHT22;9782;52.930;15.562;2023-02-15T11:38:29;6.90;99.90
18690;DHT22;9782;52.930;15.562;2023-02-15T11:41:01;7.00;99.90
18690;DHT22;9782;52.930;15.562;2023-02-15T11:43:35;7.10;99.90
18690;DHT22;9782;52.930;15.562;2023-02-15T11:46:03;7.10;99.90
18690;DHT22;9782;52.930;15.562;2023-02-15T11:48:31;7.20;79.30
18690;DHT22;9782;52.930;15.562;2023-02-15T11:50:58;7.20;92.40
18690;DHT22;9782;52.930;15.562;2023-02-15T11:53:31;7.20;99.90
18690;DHT22;9782;52.930;15.562;2023-02-15T11:55:59;7.20;91.70
18690;DHT22;9782;52.930;15.562;2023-02-15T11:58:32;7.30;79.90
18690;DHT22;9782;52.930;15.562;2023-02-15T12:01:04;7.40;3.90
18690;DHT22;9782;52.930;15.562;2023-02-15T12:03:43;7.40;1.00
18690;DHT22;9782;52.930;15.562;2023-02-15T12:06:17;7.50;1.00
18690;DHT22;9782;52.930;15.562;2023-02-15T12:08:52;7.60;1.00
18690;DHT22;9782;52.930;15.562;2023-02-15T12:11:25;7.60;1.00
18690;DHT22;9782;52.930;15.562;2023-02-15T12:13:57;7.70;1.00
18690;DHT22;9782;52.930;15.562;2023-02-15T12:16:25;7.80;1.00
18690;DHT22;9782;52.930;15.562;2023-02-15T12:18:54;7.80;1.00
18690;DHT22;9782;52.930;15.562;2023-02-15T12:21:27;7.90;1.00
18690;DHT22;9782;52.930;15.562;2023-02-15T12:24:00;7.90;1.00
18690;DHT22;9782;52.930;15.562;2023-02-15T12:26:28;8.00;1.00
18690;DHT22;9782;52.930;15.562;2023-02-15T12:28:58;8.00;1.00
18690;DHT22;9782;52.930;15.562;2023-02-15T12:31:30;8.10;1.00
18690;DHT22;9782;52.930;15.562;2023-02-15T12:34:00;8.20;1.00
18690;DHT22;9782;52.930;15.562;2023-02-15T12:36:30;8.10;1.00
18690;DHT22;9782;52.930;15.562;2023-02-15T12:39:09;8.20;1.00
18690;DHT22;9782;52.930;15.562;2023-02-15T12:41:45;8.20;1.00
18690;DHT22;9782;52.930;15.562;2023-02-15T12:44:18;8.20;1.00
18690;DHT22;9782;52.930;15.562;2023-02-15T12:46:56;8.20;1.00
18690;DHT22;9782;52.930;15.562;2023-02-15T12:49:23;8.20;1.00
18690;DHT22;9782;52.930;15.562;2023-02-15T12:51:52;8.30;1.00
18690;DHT22;9782;52.930;15.562;2023-02-15T12:54:38;8.30;1.00
18690;DHT22;9782;52.930;15.562;2023-02-15T12:57:22;8.30;1.00
18690;DHT22;9782;52.930;15.562;2023-02-15T12:59:51;8.40;1.00
18690;DHT22;9782;52.930;15.562;2023-02-15T13:02:23;8.40;1.00
18690;DHT22;9782;52.930;15.562;2023-02-15T13:04:50;8.40;1.00
18690;DHT22;9782;52.930;15.562;2023-02-15T13:07:17;8.40;1.00
18690;DHT22;9782;52.930;15.562;2023-02-15T13:09:47;8.40;1.00
18690;DHT22;9782;52.930;15.562;2023-02-15T13:12:18;8.50;1.00
18690;DHT22;9782;52.930;15.562;2023-02-15T13:14:48;8.50;1.00
18690;DHT22;9782;52.930;15.562;2023-02-15T13:17:18;8.50;1.00
18690;DHT22;9782;52.930;15.562;2023-02-15T13:19:50;8.50;1.00
18690;DHT22;9782;52.930;15.562;2023-02-15T13:22:21;8.50;1.00
18690;DHT22;9782;52.930;15.562;2023-02-15T13:24:54;8.50;1.00
18690;DHT22;9782;52.930;15.562;2023-02-15T13:27:26;8.50;1.00
18690;DHT22;9782;52.930;15.562;2023-02-15T13:29:57;8.50;1.00
18690;DHT22;9782;52.930;15.562;2023-02-15T13:32:28;8.60;1.00
18690;DHT22;9782;52.930;15.562;2023-02-15T13:34:58;8.50;1.00
18690;DHT22;9782;52.930;15.562;2023-02-15T13:40:37;8.60;1.00
18690;DHT22;9782;52.930;15.562;2023-02-15T13:43:19;8.60;1.00
18690;DHT22;9782;52.930;15.562;2023-02-15T13:45:57;8.60;1.00
18690;DHT22;9782;52.930;15.562;2023-02-15T13:48:37;8.60;99.90
18690;DHT22;9782;52.930;15.562;2023-02-15T13:51:13;8.70;99.90
18690;DHT22;9782;52.930;15.562;2023-02-15T13:54:03;8.70;99.90
18690;DHT22;9782;52.930;15.562;2023-02-15T13:56:46;8.80;99.90
18690;DHT22;9782;52.930;15.562;2023-02-15T13:59:24;8.80;99.90
18690;DHT22;9782;52.930;15.562;2023-02-15T14:01:56;8.80;99.90
18690;DHT22;9782;52.930;15.562;2023-02-15T14:04:43;8.80;99.90
18690;DHT22;9782;52.930;15.562;2023-02-15T14:07:36;8.80;99.90
18690;DHT22;9782;52.930;15.562;2023-02-15T14:10:25;8.80;99.90
18690;DHT22;9782;52.930;15.562;2023-02-15T14:15:52;8.70;99.90
18690;DHT22;9782;52.930;15.562;2023-02-15T14:18:27;8.70;99.90
18690;DHT22;9782;52.930;15.562;2023-02-15T14:21:06;8.60;99.90
18690;DHT22;9782;52.930;15.562;2023-02-15T14:23:43;8.60;99.90
18690;DHT22;9782;52.930;15.562;2023-02-15T14:26:18;8.60;99.90
18690;DHT22;9782;52.930;15.562;2023-02-15T14:28:53;8.60;99.90
18690;DHT22;9782;52.930;15.562;2023-02-15T14:31:27;8.50;99.90
18690;DHT22;9782;52.930;15.562;2023-02-15T14:33:56;8.50;99.90
18690;DHT22;9782;52.930;15.562;2023-02-15T14:36:25;8.50;99.90
18690;DHT22;9782;52.930;15.562;2023-02-15T14:39:06;8.40;99.90
18690;DHT22;9782;52.930;15.562;2023-02-15T14:41:58;8.30;1.00
18690;DHT22;9782;52.930;15.562;2023-02-15T14:44:32;8.30;1.00
18690;DHT22;9782;52.930;15.562;2023-02-15T14:47:05;8.20;1.00
18690;DHT22;9782;52.930;15.562;2023-02-15T14:49:37;8.20;1.00
18690;DHT22;9782;52.930;15.562;2023-02-15T14:52:05;8.20;1.00
18690;DHT22;9782;52.930;15.562;2023-02-15T14:54:56;8.20;1.00
18690;DHT22;9782;52.930;15.562;2023-02-15T14:57:25;8.20;1.00
18690;DHT22;9782;52.930;15.562;2023-02-15T14:59:55;8.20;1.00
18690;DHT22;9782;52.930;15.562;2023-02-15T15:02:26;8.10;1.00
18690;DHT22;9782;52.930;15.562;2023-02-15T15:04:58;8.10;1.00
18690;DHT22;9782;52.930;15.562;2023-02-15T15:07:27;8.10;1.00
18690;DHT22;9782;52.930;15.562;2023-02-15T15:10:00;8.00;1.00
18690;DHT22;9782;52.930;15.562;2023-02-15T15:12:39;7.90;1.00
18690;DHT22;9782;52.930;15.562;2023-02-15T15:15:12;7.90;1.00
18690;DHT22;9782;52.930;15.562;2023-02-15T15:17:54;7.80;1.00
18690;DHT22;9782;52.930;15.562;2023-02-15T15:20:45;7.80;1.00
18690;DHT22;9782;52.930;15.562;2023-02-15T15:23:42;7.70;1.00
18690;DHT22;9782;52.930;15.562;2023-02-15T15:26:24;7.60;1.00
18690;DHT22;9782;52.930;15.562;2023-02-15T15:28:57;7.50;1.00
18690;DHT22;9782;52.930;15.562;2023-02-15T15:31:31;7.40;1.00
18690;DHT22;9782;52.930;15.562;2023-02-15T15:34:21;7.40;1.00
18690;DHT22;9782;52.930;15.562;2023-02-15T15:37:26;7.30;1.00
18690;DHT22;9782;52.930;15.562;2023-02-15T15:40:30;7.20;1.00
18690;DHT22;9782;52.930;15.562;2023-02-15T15:43:24;7.10;1.00
18690;DHT22;9782;52.930;15.562;2023-02-15T15:49:08;6.90;1.00
18690;DHT22;9782;52.930;15.562;2023-02-15T15:51:40;6.80;1.00
18690;DHT22;9782;52.930;15.562;2023-02-15T15:54:14;6.70;1.00
18690;DHT22;9782;52.930;15.562;2023-02-15T15:56:45;6.70;1.00
18690;DHT22;9782;52.930;15.562;2023-02-15T15:59:18;6.50;1.00
18690;DHT22;9782;52.930;15.562;2023-02-15T16:01:46;6.50;1.00
18690;DHT22;9782;52.930;15.562;2023-02-15T16:04:24;6.40;1.00
18690;DHT22;9782;52.930;15.562;2023-02-15T16:06:51;6.30;1.00
18690;DHT22;9782;52.930;15.562;2023-02-15T16:09:20;6.20;1.00
18690;DHT22;9782;52.930;15.562;2023-02-15T16:11:48;6.10;1.00
18690;DHT22;9782;52.930;15.562;2023-02-15T16:14:23;6.00;1.00
18690;DHT22;9782;52.930;15.562;2023-02-15T16:16:54;5.90;1.00
18690;DHT22;9782;52.930;15.562;2023-02-15T16:19:26;5.90;3.70
18690;DHT22;9782;52.930;15.562;2023-02-15T16:21:55;5.80;35.10
18690;DHT22;9782;52.930;15.562;2023-02-15T16:24:37;5.70;73.50
18690;DHT22;9782;52.930;15.562;2023-02-15T16:27:22;5.70;99.90
18690;DHT22;9782;52.930;15.562;2023-02-15T16:29:53;5.60;99.90
18690;DHT22;9782;52.930;15.562;2023-02-15T16:32:22;5.60;99.90
18690;DHT22;9782;52.930;15.562;2023-02-15T16:34:56;5.50;99.90
18690;DHT22;9782;52.930;15.562;2023-02-15T16:37:25;5.40;99.90
18690;DHT22;9782;52.930;15.562;2023-02-15T16:39:53;5.40;99.90
18690;DHT22;9782;52.930;15.562;2023-02-15T16:42:20;5.30;99.90
18690;DHT22;9782;52.930;15.562;2023-02-15T16:44:51;5.30;99.90
18690;DHT22;9782;52.930;15.562;2023-02-15T16:47:20;5.30;99.90
18690;DHT22;9782;52.930;15.562;2023-02-15T16:49:50;5.20;99.90
18690;DHT22;9782;52.930;15.562;2023-02-15T16:52:22;5.20;99.90
18690;DHT22;9782;52.930;15.562;2023-02-15T16:54:53;5.10;99.90
18690;DHT22;9782;52.930;15.562;2023-02-15T16:57:22;5.10;99.90
18690;DHT22;9782;52.930;15.562;2023-02-15T16:59:50;5.10;99.90
18690;DHT22;9782;52.930;15.562;2023-02-15T17:02:20;5.00;99.90
18690;DHT22;9782;52.930;15.562;2023-02-15T17:05:15;5.00;99.90
18690;DHT22;9782;52.930;15.562;2023-02-15T17:07:51;4.90;99.90
18690;DHT22;9782;52.930;15.562;2023-02-15T17:10:32;4.90;99.90
18690;DHT22;9782;52.930;15.562;2023-02-15T17:13:01;4.90;99.90
18690;DHT22;9782;52.930;15.562;2023-02-15T17:15:31;4.80;99.90
18690;DHT22;9782;52.930;15.562;2023-02-15T17:18:01;4.80;99.90
18690;DHT22;9782;52.930;15.562;2023-02-15T17:20:29;4.70;99.90
18690;DHT22;9782;52.930;15.562;2023-02-15T17:22:58;4.70;99.90